TFM - Tactical Decision Aid
ID: Runway Winds: CIG/VIS Threshold:

KCUB - Columbia/Downtown, SC, US

Updated at: 1841 UTC 25 Sep 2020
Latest TAF at: 1730 UTC 25 Sep 2020

TAF Board

Time1753Z 25/19Z 25/20Z 25/21Z 25/22Z 25/23Z 26/00Z 26/01Z 26/02Z 26/03Z 26/04Z 26/05Z 26/06Z 26/07Z>>
Type OBS PRVL
  [TEMP]  
PRVL
  [TEMP]  
PRVL
  [TEMP]  
PRVL PRVL PRVL PRVL PRVL PRVL PRVL PRVL PRVL PRVL
VIS 10 >6
  [0.75]  
>6
  [0.75]  
>6
  [0.75]  
>6 >6 >6 >6 >6 >6 >6 4 4 4
CIG 110 35
  [15]  
35
  [15]  
35
  [15]  
35 35 15 15 15 15 15 7 7 7
Cover BKN BKN
  [BKN]  
BKN
  [BKN]  
BKN
  [BKN]  
BKN BKN BKN BKN BKN BKN BKN OVC OVC OVC
FltCat VFR VFR
  [LIFR]  
VFR
  [LIFR]  
VFR
  [LIFR]  
VFR VFR MVFR MVFR MVFR MVFR MVFR IFR IFR IFR
WX -- VCSH
  [TSRA]  
VCSH
  [TSRA]  
VCSH
  [TSRA]  
VCSH VCSH VCSH VCSH VCSH VCSH VCSH BR BR BR
WDir 210 230
[230]
230
[230]
230
[230]
230 230 VRB VRB VRB VRB VRB VRB VRB VRB
WSpd 7 5
  [5]  
5
  [5]  
5
  [5]  
5 5 4 4 4 4 4 0 0 0
WGst -- --
  [--]  
--
  [--]  
--
  [--]  
-- -- -- -- -- -- -- -- -- --

TDA Impact Legend

  None Marginal Slight Moderate High
Visibility (sm) >5 3≤X≤5 2≤X<3 1≤X<2 <1
Ceiling (100 ft) >30 10≤X≤30 8≤X<10 5≤X<8 <5
Wind Speed (kt) <15 15≤X<25 25≤X<30 ≥30
Wind Gust (kt) <15 15≤X<25 25≤X<35 ≥35
Weather No Wx Reported VCTS -TS,-FZRA TS,FZRA +TS,+FZRA
TAF
KCUB 251730Z 2518/2618 23005KT P6SM VCSH SCT015 BKN035
  TEMPO 2518/2522 3/4SM TSRA BKN015CB
  FM260000 VRB04KT P6SM VCSH SCT008 BKN015
  FM260500 00000KT 4SM BR OVC007
  FM260800 VRB03KT 2SM BR OVC003
  TEMPO 2610/2613 1/2SM FG OVC001
  FM261500 VRB03KT 5SM BR OVC006


METAR
KCUB 251753Z AUTO 21007KT 10SM FEW022 SCT036 BKN110 27/22 A2997 RMK AO2 RAB1654E06 SLP146 P0000 60001 T02720222 10283 20217 58016 TSNO
KCUB 251706Z AUTO 20008KT 10SM FEW023 SCT030 BKN037 27/23 A2999 RMK AO2 RAB1654E06 P0000 T02670228 TSNO
KCUB 251653Z AUTO 20010KT 6SM HZ FEW021 BKN029 OVC036 27/22 A2999 RMK AO2 SLP154 T02670222 TSNO
KCUB 251643Z AUTO 20007KT 10SM FEW020 BKN028 OVC036 27/22 A2999 RMK AO2 T02720222 TSNO
KCUB 251614Z AUTO VRB04KT 10SM FEW013 BKN030 OVC060 27/23 A3000 RMK AO2 T02670233 TSNO
KCUB 251600Z AUTO 18006KT 10SM FEW011 SCT017 BKN025 26/23 A3001 RMK AO2 T02610228 TSNO
KCUB 251553Z AUTO 19006KT 10SM BKN013 BKN019 OVC049 26/23 A3001 RMK AO2 SLP159 T02610233 TSNO

Radar Display
Forecast Discussion